createdAt,value
2023-03-05T00:04:14.463Z,99906.75
2023-03-05T00:09:17.913Z,99916.50
2023-03-05T00:14:21.011Z,99912.94
2023-03-05T00:19:24.095Z,99913.28
2023-03-05T00:24:27.114Z,99917.44
2023-03-05T00:29:31.807Z,99918.38
2023-03-05T00:34:36.350Z,99906.97
2023-03-05T00:39:39.344Z,99913.88
2023-03-05T00:44:42.329Z,99910.28
2023-03-05T00:49:45.437Z,99905.31
2023-03-05T00:54:48.591Z,99895.81
2023-03-05T00:59:51.533Z,99885.34
2023-03-05T01:04:54.549Z,99882.25
2023-03-05T01:09:57.556Z,99878.44
2023-03-05T01:15:01.211Z,99879.38
2023-03-05T01:20:05.802Z,99886.31
2023-03-05T01:25:09.717Z,99877.72
2023-03-05T01:30:15.666Z,99870.81
2023-03-05T01:35:22.699Z,99883.19
2023-03-05T01:40:29.131Z,99877.34
2023-03-05T01:45:35.418Z,99875.91
2023-03-05T01:50:38.694Z,99879.41
2023-03-05T01:55:41.780Z,99888.78
2023-03-05T02:00:48.587Z,99884.38
2023-03-05T02:05:51.731Z,99872.38
2023-03-05T02:10:57.855Z,99889.00
2023-03-05T02:16:03.779Z,99886.88
2023-03-05T02:21:08.645Z,99872.22
2023-03-05T02:26:11.744Z,99874.72
2023-03-05T02:31:21.911Z,99886.03
2023-03-05T02:36:25.286Z,99874.72
2023-03-05T02:41:28.750Z,99874.03
2023-03-05T02:46:31.846Z,99876.97
2023-03-05T02:51:35.117Z,99872.94
2023-03-05T02:56:39.626Z,99868.91
2023-03-05T03:01:42.630Z,99865.78
2023-03-05T03:06:45.607Z,99866.75
2023-03-05T03:11:49.506Z,99865.19
2023-03-05T03:16:53.289Z,99858.63
2023-03-05T03:21:56.200Z,99861.81
2023-03-05T03:26:59.316Z,99859.69
2023-03-05T03:32:05.516Z,99865.00
2023-03-05T03:37:09.035Z,99859.97
2023-03-05T03:42:12.098Z,99853.03
2023-03-05T03:47:15.457Z,99853.00
2023-03-05T03:52:18.149Z,99846.78
2023-03-05T03:57:21.466Z,99849.81
2023-03-05T04:02:24.332Z,99851.22
2023-03-05T04:07:28.259Z,99842.25
2023-03-05T04:12:31.572Z,99847.09
2023-03-05T04:17:34.670Z,99846.72
2023-03-05T04:22:38.193Z,99849.03
2023-03-05T04:27:41.312Z,99850.31
2023-03-05T04:32:44.377Z,99842.69
2023-03-05T04:37:47.401Z,99841.75
2023-03-05T04:42:50.351Z,99835.47
2023-03-05T04:47:53.856Z,99832.31
2023-03-05T04:52:56.615Z,99824.09
2023-03-05T04:57:59.629Z,99830.91
2023-03-05T05:03:02.906Z,99831.59
2023-03-05T05:08:06.224Z,99831.63
2023-03-05T05:13:09.187Z,99835.31
2023-03-05T05:18:12.457Z,99831.66
2023-03-05T05:23:16.509Z,99833.13
2023-03-05T05:28:19.477Z,99825.19
2023-03-05T05:33:23.438Z,99833.88
2023-03-05T05:38:26.579Z,99846.75
2023-03-05T05:43:29.668Z,99848.41
2023-03-05T05:48:35.810Z,99843.91
2023-03-05T05:53:40.613Z,99848.88
2023-03-05T05:58:45.172Z,99846.25
2023-03-05T06:03:48.693Z,99842.91
2023-03-05T06:08:53.183Z,99850.16
2023-03-05T06:13:56.204Z,99860.88
2023-03-05T06:19:04.285Z,99863.00
2023-03-05T06:24:07.833Z,99856.19
2023-03-05T06:29:11.051Z,99861.88
2023-03-05T06:34:14.107Z,99870.94
2023-03-05T06:39:17.328Z,99869.59
2023-03-05T06:44:20.269Z,99871.72
2023-03-05T06:49:23.005Z,99876.34
2023-03-05T06:54:26.096Z,99867.97
2023-03-05T06:59:29.127Z,99868.03
2023-03-05T07:04:32.181Z,99871.25
2023-03-05T07:09:35.139Z,99865.63
2023-03-05T07:14:39.417Z,99870.06
2023-03-05T07:19:44.035Z,99870.06
2023-03-05T07:24:47.428Z,99876.97
2023-03-05T07:29:50.415Z,99884.69
2023-03-05T07:34:53.577Z,99885.28
2023-03-05T07:39:56.519Z,99868.81
2023-03-05T07:44:59.611Z,99872.63
2023-03-05T07:50:04.329Z,99867.78
2023-03-05T07:55:07.803Z,99865.53
2023-03-05T08:00:11.674Z,99859.47
2023-03-05T08:05:15.170Z,99864.06
2023-03-05T08:10:18.223Z,99865.34
2023-03-05T08:15:21.241Z,99855.88
2023-03-05T08:20:24.780Z,99855.53
2023-03-05T08:25:28.350Z,99857.22
2023-03-05T08:30:31.653Z,99860.84
2023-03-05T08:35:34.731Z,99857.75
2023-03-05T08:40:38.265Z,99855.28
2023-03-05T08:45:41.315Z,99838.84
2023-03-05T08:50:44.250Z,99841.47
2023-03-05T08:55:58.308Z,99845.75
2023-03-05T09:01:05.248Z,99834.13
2023-03-05T09:06:12.366Z,99836.75
2023-03-05T09:11:15.665Z,99839.38
2023-03-05T09:16:19.898Z,99835.53
2023-03-05T09:21:24.114Z,99830.00
2023-03-05T09:26:27.644Z,99833.88
2023-03-05T09:31:30.707Z,99826.66
2023-03-05T09:36:34.242Z,99828.31
2023-03-05T09:42:10.268Z,99824.19
2023-03-05T09:47:27.242Z,99823.06
2023-03-05T09:52:56.029Z,99826.81
2023-03-05T09:58:07.815Z,99823.63
2023-03-05T10:03:51.084Z,99816.56
2023-03-05T10:09:21.065Z,99807.84
2023-03-05T10:14:38.406Z,99807.28
2023-03-05T10:20:46.160Z,99802.16
2023-03-05T10:26:01.060Z,99794.34
2023-03-05T10:31:25.331Z,99789.75
2023-03-05T10:36:28.503Z,99789.34
2023-03-05T10:41:53.251Z,99780.88
2023-03-05T10:47:00.106Z,99781.00
2023-03-05T10:52:07.561Z,99775.03
2023-03-05T10:57:38.369Z,99779.19
2023-03-05T11:03:06.869Z,99770.31
2023-03-05T11:08:29.514Z,99767.44
2023-03-05T11:13:33.899Z,99748.44
2023-03-05T11:18:37.856Z,99742.06
2023-03-05T11:23:41.353Z,99742.16
2023-03-05T11:28:54.842Z,99736.06
2023-03-05T11:34:21.568Z,99733.75
2023-03-05T11:39:26.183Z,99733.69
2023-03-05T11:44:42.995Z,99728.25
2023-03-05T11:49:50.709Z,99728.41
2023-03-05T11:55:15.980Z,99712.22
2023-03-05T12:00:27.131Z,99706.13
2023-03-05T12:05:31.499Z,99705.28
2023-03-05T12:10:35.029Z,99684.16
2023-03-05T12:16:01.662Z,99671.94
2023-03-05T12:21:26.125Z,99664.16
2023-03-05T12:26:54.421Z,99657.53
2023-03-05T12:31:58.977Z,99656.06
2023-03-05T12:37:01.907Z,99648.28
2023-03-05T12:42:30.739Z,99640.16
2023-03-05T12:47:33.683Z,99634.19
2023-03-05T12:52:39.842Z,99636.03
2023-03-05T12:57:45.867Z,99609.44
2023-03-05T13:02:58.063Z,99621.56
2023-03-05T13:08:26.793Z,99626.00
2023-03-05T13:13:36.057Z,99624.13
2023-03-05T13:18:45.660Z,99622.22
2023-03-05T13:23:58.972Z,99628.94
2023-03-05T13:29:12.477Z,99629.66
2023-03-05T13:34:40.966Z,99631.44
2023-03-05T13:39:59.853Z,99632.75
2023-03-05T13:45:16.859Z,99632.94
2023-03-05T13:50:39.117Z,99626.66
2023-03-05T13:55:42.307Z,99622.22
2023-03-05T14:00:45.232Z,99626.97
2023-03-05T14:05:50.066Z,99626.97
2023-03-05T14:10:59.211Z,99606.19
2023-03-05T14:16:33.391Z,99610.06
2023-03-05T14:21:49.138Z,99621.31
2023-03-05T14:27:03.370Z,99620.78
2023-03-05T14:32:17.365Z,99606.25
2023-03-05T14:37:38.795Z,99604.88
2023-03-05T14:42:41.717Z,99576.34
2023-03-05T14:47:45.245Z,99566.69
2023-03-05T14:52:52.381Z,99572.34
2023-03-05T14:58:10.829Z,99569.84
2023-03-05T15:03:16.753Z,99571.38
2023-03-05T15:08:27.014Z,99558.91
2023-03-05T15:13:31.760Z,99544.22
2023-03-05T15:18:34.800Z,99570.81
2023-03-05T15:23:38.619Z,99581.09
2023-03-05T15:28:43.255Z,99576.97
2023-03-05T15:33:46.251Z,99566.19
2023-03-05T15:38:49.287Z,99560.69
2023-03-05T15:43:52.420Z,99565.53
2023-03-05T15:48:55.568Z,99590.16
2023-03-05T15:53:59.450Z,99586.16
2023-03-05T15:59:06.096Z,99592.22
2023-03-05T16:04:09.108Z,99579.78
2023-03-05T16:09:13.981Z,99586.72
2023-03-05T16:14:23.446Z,99595.00
2023-03-05T16:19:27.809Z,99591.25
2023-03-05T16:24:30.888Z,99598.88
2023-03-05T16:29:34.992Z,99594.97
2023-03-05T16:34:37.972Z,99593.88
2023-03-05T16:39:41.007Z,99585.97
2023-03-05T16:44:44.913Z,99587.63
2023-03-05T16:49:47.899Z,99582.47
2023-03-05T16:54:50.953Z,99592.41
2023-03-05T16:59:56.762Z,99593.19
2023-03-05T17:05:00.196Z,99589.72
2023-03-05T17:10:03.281Z,99600.00
2023-03-05T17:15:07.949Z,99599.13
2023-03-05T17:20:13.166Z,99609.44
2023-03-05T17:25:16.274Z,99599.75
2023-03-05T17:30:19.978Z,99605.75
2023-03-05T17:35:23.504Z,99606.25
2023-03-05T17:40:26.410Z,99605.94
2023-03-05T17:45:29.344Z,99615.16
2023-03-05T17:50:32.373Z,99612.06
2023-03-05T17:55:35.298Z,99613.28
2023-03-05T18:00:38.338Z,99623.72
2023-03-05T18:05:41.614Z,99617.19
2023-03-05T18:10:44.794Z,99616.03
2023-03-05T18:15:48.000Z,99618.41
2023-03-05T18:20:51.148Z,99612.16
2023-03-05T18:25:54.236Z,99618.72
2023-03-05T18:30:57.269Z,99611.94
2023-03-05T18:36:00.353Z,99610.25
2023-03-05T18:41:06.346Z,99607.78
2023-03-05T18:46:10.534Z,99609.94
2023-03-05T18:51:17.876Z,99612.47
2023-03-05T18:56:22.226Z,99608.78
2023-03-05T19:01:25.586Z,99606.09
2023-03-05T19:06:28.849Z,99616.09
2023-03-05T19:11:31.906Z,99619.75
2023-03-05T19:16:40.607Z,99618.56
2023-03-05T19:21:50.860Z,99612.97
2023-03-05T19:27:00.964Z,99610.25
2023-03-05T19:32:07.708Z,99616.31
2023-03-05T19:37:12.142Z,99607.97
2023-03-05T19:42:15.401Z,99607.50
2023-03-05T19:47:20.380Z,99606.47
2023-03-05T19:52:23.398Z,99610.53
2023-03-05T19:57:29.364Z,99608.38
2023-03-05T20:02:32.836Z,99609.44
2023-03-05T20:07:36.010Z,99609.69
2023-03-05T20:12:39.495Z,99600.28
2023-03-05T20:17:45.905Z,99609.44
2023-03-05T20:22:49.021Z,99602.94
2023-03-05T20:27:52.686Z,99601.63
2023-03-05T20:32:55.827Z,99604.34
2023-03-05T20:38:21.708Z,99595.78
2023-03-05T20:43:35.415Z,99602.44
2023-03-05T20:48:38.484Z,99603.97
2023-03-05T20:53:41.533Z,99609.81
2023-03-05T20:58:44.696Z,99596.63
2023-03-05T21:03:48.007Z,99603.16
2023-03-05T21:08:51.074Z,99604.00
2023-03-05T21:13:54.143Z,99597.94
2023-03-05T21:18:57.627Z,99601.97
2023-03-05T21:24:00.706Z,99604.34
2023-03-05T21:29:03.917Z,99604.13
2023-03-05T21:34:07.771Z,99602.19
2023-03-05T21:39:10.754Z,99604.56
2023-03-05T21:44:17.644Z,99585.91
2023-03-05T21:49:20.683Z,99581.38
2023-03-05T21:54:24.194Z,99571.63
2023-03-05T21:59:27.292Z,99555.94
2023-03-05T22:04:30.273Z,99563.16
2023-03-05T22:09:33.294Z,99558.72
2023-03-05T22:14:36.661Z,99561.56
2023-03-05T22:19:39.702Z,99560.63
2023-03-05T22:24:42.744Z,99563.81
2023-03-05T22:29:45.725Z,99555.94
2023-03-05T22:34:48.689Z,99544.78
2023-03-05T22:39:55.768Z,99549.44
2023-03-05T22:44:59.515Z,99551.34
2023-03-05T22:50:03.176Z,99546.25
2023-03-05T22:55:07.030Z,99551.56
2023-03-05T23:00:19.001Z,99544.69
2023-03-05T23:05:22.081Z,99543.63
2023-03-05T23:10:28.622Z,99540.19
2023-03-05T23:15:38.282Z,99535.03
2023-03-05T23:20:41.719Z,99532.44
2023-03-05T23:25:44.733Z,99534.22
2023-03-05T23:30:47.861Z,99536.75
2023-03-05T23:35:55.945Z,99531.50
2023-03-05T23:41:01.407Z,99533.16
2023-03-05T23:46:12.047Z,99530.28
2023-03-05T23:51:15.148Z,99531.25
2023-03-05T23:56:18.120Z,99526.28
